Impacts METAR Board
IDs:

KLAS - Las Vegas/McCarran I, NV, US

Updated at: 1700 UTC 03 Dec 2021
Potential Impact None Slight Moderate High
Time 03/05Z 03/06Z 03/07Z 03/08Z 03/09Z 03/10Z 03/11Z 03/12Z 03/13Z 03/14Z 03/15Z 03/16Z 03/17Z
Temp58 57 55 54 53 52 52 50 49 50 49 53 59
Dewpt27 26 23 24 24 24 25 25 23 23 24 24 25
Altim30.11 30.12 30.11 30.10 30.10 30.11 30.12 30.11 30.11 30.12 30.13 30.14 30.15
VIS10 10 10 10 10 10 10 10 10 10 10 10 10
CIG220 220 210 -- 210 240 210 220 -- -- -- -- --
CoverBKNBKNBKNSCTBKNBKNBKNBKNSCTSCTSCTFEWFEW
FltCatVFRVFRVFRVFRVFRVFRVFRVFRVFRVFRVFRVFRVFR
WX--------------------------
WDir27020021022020022000240200000
WSpd5 4 5 3 3 3 0 0 3 5 0 3 0
WGst-- -- -- -- -- -- -- -- -- -- -- -- --
Raw hourly METARs
KLAS 030456Z 27005KT 10SM FEW180 BKN220 14/M03 A3011 RMK AO2 SLP188 T01441028
KLAS 030556Z 20004KT 10SM FEW180 BKN220 14/M03 A3012 RMK AO2 SLP189 T01391033 10200 20133 51007
KLAS 030656Z 21005KT 10SM BKN210 13/M05 A3011 RMK AO2 SLP186 T01281050
KLAS 030756Z 22003KT 10SM SCT210 12/M04 A3010 RMK AO2 SLP184 T01221044 402060089
KLAS 030856Z 20003KT 10SM BKN210 12/M04 A3010 RMK AO2 SLP183 T01171044 56005
KLAS 030956Z 22003KT 10SM FEW200 BKN240 11/M04 A3011 RMK AO2 SLP185 T01111044
KLAS 031056Z 00000KT 10SM BKN210 11/M04 A3012 RMK AO2 SLP190 T01111039
KLAS 031156Z 00000KT 10SM BKN220 10/M04 A3011 RMK AO2 SLP188 T01001039 10139 20100 50003
KLAS 031256Z 24003KT 10SM SCT220 09/M05 A3011 RMK AO2 SLP189 T00941050
KLAS 031356Z 20005KT 10SM SCT220 10/M05 A3012 RMK AO2 SLP192 T01001050
KLAS 031456Z 00000KT 10SM FEW150 SCT220 09/M04 A3013 RMK AO2 SLP197 T00941044 53007
KLAS 031556Z VRB03KT 10SM FEW150 FEW220 12/M04 A3014 RMK AO2 SLP199 T01171044
KLAS 031656Z 00000KT 10SM FEW150 FEW220 15/M04 A3015 RMK AO2 SLP203 T01501039



Page loaded:  17:15 UTC  |   09:15 AM Pacific  |   10:15 AM Mountain  |   11:15 AM Central  |   12:15 PM Eastern

 

ADVISORIES

FORECASTS

FORECASTS

OBSERVATIONS

USER TOOLS

ABOUT US